This is the latest recevied weather packets stored in our database for station/object W7BL. If no packets are shown the sender has not sent any weather packets the latest 10 day(s).
| Time | Temp. | Humidity | Pressure | Rain* | Wind** | Luminosity | Snow |
|---|---|---|---|---|---|---|---|
| 1777392573 | 9.44° C | 66% | - | 0 mm | - | - | - |
| 1777392268 | 8.89° C | 65% | - | 0 mm | - | - | - |
| 1777391963 | 8.33° C | 66% | - | 0 mm | - | - | - |
| 1777391659 | 7.78° C | 69% | - | 0 mm | - | - | - |
| 1777391355 | 7.22° C | 69% | - | 0 mm | - | - | - |
| 1777391052 | 8.33° C | 67% | - | 0 mm | - | - | - |
| 1777390748 | 7.22° C | 69% | - | 0 mm | - | - | - |
| 1777390445 | 6.67° C | 72% | - | 0 mm | - | - | - |
| 1777390141 | 6.11° C | 74% | - | 0 mm | - | - | - |
| 1777389837 | 6.67° C | 72% | - | 0 mm | - | - | - |
| 1777389535 | 6.67° C | 72% | - | 0 mm | - | - | - |
| 1777389231 | 5.56° C | 74% | - | 0 mm | - | - | - |
| 1777388930 | 5° C | 77% | - | 0 mm | - | - | - |
| 1777388625 | 3.89° C | 78% | - | 0 mm | - | - | - |
| 1777388323 | 3.89° C | 79% | - | 0 mm | - | - | - |
| 1777388022 | 3.89° C | 80% | - | 0 mm | - | - | - |
| 1777387719 | 3.89° C | 81% | - | 0 mm | - | - | - |
| 1777387415 | 2.78° C | 84% | - | 0 mm | - | - | - |
| 1777387115 | 2.78° C | 83% | - | 0 mm | - | - | - |
| 1777386811 | 2.78° C | 83% | - | 0 mm | - | - | - |
| 1777386508 | 2.78° C | 84% | - | 0 mm | - | - | - |
| 1777386205 | 2.22° C | 84% | - | 0 mm | - | - | - |
| 1777385903 | 2.22° C | 84% | - | 0 mm | - | - | - |
| 1777385599 | 1.67° C | 85% | - | 0 mm | - | - | - |
| 1777385297 | 1.67° C | 87% | - | 0 mm | - | - | - |
* Rain latest hour (hover to see other rain measurements)
** Current wind speed in m/s (hover to see current wind gust speed)